Time;durP1;ratioP1;P1;durP2;ratioP2;P2;SDS_P1;SDS_P2;PMS_P1;PMS_P2;Temp;Humidity;BMP_temperature;BMP_pressure;BME280_temperature;BME280_humidity;BME280_pressure;Samples;Min_cycle;Max_cycle;Signal;HPM_P1;HPM_P2
2023/04/14 00:00:20;;;;;;;4.23;3.17;;;7.90;99.90;;;-141.84;72.96;19555.75;5058019;28;20205;-73
2023/04/14 00:02:48;;;;;;;3.90;3.00;;;7.90;99.90;;;-141.84;72.72;19561.84;5056894;28;20229;-73
2023/04/14 00:05:16;;;;;;;4.83;3.27;;;7.90;99.90;;;-141.84;72.80;19509.00;5054991;28;20225;-76
2023/04/14 00:07:45;;;;;;;4.23;3.27;;;7.90;99.90;;;-141.84;73.01;19549.63;5061461;28;20392;-76
2023/04/14 00:10:13;;;;;;;4.13;3.23;;;7.90;99.90;;;-141.84;73.29;19561.84;5075869;28;20246;-76
2023/04/14 00:12:41;;;;;;;3.83;3.43;;;7.90;99.90;;;-141.84;73.99;19541.50;5076407;28;20197;-73
2023/04/14 00:15:10;;;;;;;4.13;2.93;;;7.80;99.90;;;-141.84;74.33;19533.38;5075651;28;20225;-74
2023/04/14 00:17:40;;;;;;;4.10;3.40;;;7.80;99.90;;;-141.84;74.20;19549.63;5075968;28;20224;-73
2023/04/14 00:20:09;;;;;;;5.37;3.40;;;7.90;99.90;;;-141.84;74.31;19537.44;5074125;28;20251;-75
2023/04/14 00:22:38;;;;;;;3.50;3.20;;;7.90;99.90;;;-141.84;74.21;19578.09;5073699;28;20225;-74
2023/04/14 00:25:06;;;;;;;4.10;3.00;;;7.80;99.90;;;-141.84;74.26;19543.53;5073316;28;20704;-73
2023/04/14 00:27:35;;;;;;;3.20;2.90;;;7.80;99.90;;;-141.84;74.31;19521.19;5073651;28;20204;-74
2023/04/14 00:30:04;;;;;;;3.50;3.10;;;7.80;99.90;;;-141.84;74.40;19533.38;5072993;28;20220;-74
2023/04/14 00:32:32;;;;;;;3.40;3.10;;;7.80;99.90;;;-141.84;75.05;19529.31;5073313;28;20233;-72
2023/04/14 00:35:02;;;;;;;4.20;3.40;;;7.80;99.90;;;-141.84;75.20;19545.56;5074718;28;20284;-73
2023/04/14 00:37:30;;;;;;;3.33;3.03;;;7.80;99.90;;;-141.84;74.94;19537.44;5071820;28;20216;-74
2023/04/14 00:39:58;;;;;;;6.27;3.60;;;7.80;99.90;;;-141.84;74.66;19506.97;5053761;28;20197;-74
2023/04/14 00:42:26;;;;;;;3.50;3.20;;;7.70;99.90;;;-141.84;74.46;19545.56;5065019;28;20189;-74
2023/04/14 00:44:55;;;;;;;5.07;3.13;;;7.70;99.90;;;-141.84;74.54;19519.16;5073464;28;20223;-75
2023/04/14 00:47:23;;;;;;;4.33;3.23;;;7.70;99.90;;;-141.84;75.26;19511.03;5073001;28;20239;-73
2023/04/14 00:49:51;;;;;;;4.03;3.53;;;7.70;99.90;;;-141.84;75.46;19492.75;5072612;28;20629;-75
2023/04/14 00:52:23;;;;;;;4.27;3.50;;;7.60;99.90;;;-141.84;75.42;19504.94;5072687;28;20236;-74
2023/04/14 00:54:51;;;;;;;3.70;3.30;;;7.60;99.90;;;-141.84;75.60;19509.00;5072649;28;20201;-73
2023/04/14 00:57:20;;;;;;;3.93;3.53;;;7.60;99.90;;;-141.84;75.87;19500.88;5072977;28;20205;-75
2023/04/14 00:59:48;;;;;;;6.17;3.40;;;7.60;99.90;;;-141.84;75.97;19521.19;5072114;28;20302;-75
2023/04/14 01:02:16;;;;;;;4.23;3.83;;;7.60;99.90;;;-141.84;75.82;19504.94;5071997;28;20711;-75
2023/04/14 01:04:45;;;;;;;4.73;3.47;;;7.60;99.90;;;-141.84;76.03;19490.72;5072277;28;20235;-74
2023/04/14 01:07:27;;;;;;;4.00;3.60;;;7.60;99.90;;;-141.84;76.19;19519.16;5072281;28;20231;-75
2023/04/14 01:09:57;;;;;;;5.60;3.53;;;7.50;99.90;;;-141.84;75.93;19492.75;5072015;28;20185;-72
2023/04/14 01:12:55;;;;;;;3.93;3.43;;;7.60;99.90;;;-141.84;75.51;19496.81;5072367;28;20201;-71
2023/04/14 01:15:33;;;;;;;4.33;3.37;;;7.60;99.90;;;-141.84;74.80;19502.91;5072041;28;20224;-73
2023/04/14 01:18:14;;;;;;;5.87;3.37;;;7.60;99.90;;;-141.84;74.65;19488.69;5071938;28;20232;-73
2023/04/14 01:20:50;;;;;;;4.23;3.53;;;7.60;99.90;;;-141.84;75.46;19533.38;5071831;28;20232;-72
2023/04/14 01:23:26;;;;;;;3.40;3.10;;;7.60;99.90;;;-141.84;75.41;19488.69;5071595;28;20239;-73
2023/04/14 01:26:20;;;;;;;4.50;3.50;;;7.60;99.90;;;-141.84;74.81;19496.81;5071766;28;20219;-73
2023/04/14 01:29:52;;;;;;;3.50;3.20;;;7.60;99.90;;;-141.84;74.99;19468.34;5063879;28;20247;-72
2023/04/14 01:32:27;;;;;;;3.80;3.17;;;7.60;99.90;;;-141.84;74.76;19486.66;5051763;28;20237;-74
2023/04/14 01:35:04;;;;;;;4.03;3.17;;;7.60;99.90;;;-141.84;75.00;19513.06;5064612;28;20231;-75
2023/04/14 01:37:41;;;;;;;6.43;3.70;;;7.60;99.90;;;-141.84;74.97;19500.88;5069427;28;20224;-73
2023/04/14 01:40:15;;;;;;;4.93;3.33;;;7.60;99.90;;;-141.84;75.08;19517.13;5051170;28;20681;-73
2023/04/14 01:42:49;;;;;;;4.47;3.70;;;7.60;99.90;;;-141.84;74.89;19498.84;5066046;28;20780;-74
2023/04/14 01:45:24;;;;;;;5.30;3.50;;;7.60;99.90;;;-141.84;74.95;19506.97;5071124;28;20220;-74
2023/04/14 01:47:55;;;;;;;4.80;3.63;;;7.60;99.90;;;-141.84;75.16;19478.50;5071141;28;20259;-73
2023/04/14 01:50:27;;;;;;;4.33;3.70;;;7.60;99.90;;;-141.84;75.35;19484.59;5071224;28;20228;-75
2023/04/14 01:52:57;;;;;;;5.80;4.00;;;7.60;99.90;;;-141.84;75.01;19504.94;5071042;28;20220;-73
2023/04/14 01:55:30;;;;;;;3.43;3.13;;;7.60;99.90;;;-141.84;74.09;19519.16;5070960;28;20224;-74
2023/04/14 01:58:02;;;;;;;4.80;4.00;;;7.60;99.90;;;-141.84;72.94;19539.47;5070893;28;20188;-73
2023/04/14 02:00:31;;;;;;;4.30;3.73;;;7.70;99.90;;;-141.84;73.41;19506.97;5070949;28;20207;-76
2023/04/14 02:03:05;;;;;;;6.50;4.40;;;7.70;99.90;;;-141.84;73.41;19513.06;5070631;28;20228;-73
2023/04/14 02:05:38;;;;;;;4.43;3.60;;;7.70;99.90;;;-141.84;73.11;19549.63;5070734;28;20273;-74
2023/04/14 02:08:12;;;;;;;4.70;3.60;;;7.70;99.90;;;-141.84;73.36;19498.84;5070401;28;20327;-73
2023/04/14 02:10:45;;;;;;;4.93;3.70;;;7.70;99.90;;;-141.84;73.68;19517.13;5070692;28;20224;-72
2023/04/14 02:13:16;;;;;;;4.13;3.70;;;7.70;99.90;;;-141.84;74.27;19500.88;5070572;28;20228;-72
2023/04/14 02:15:47;;;;;;;4.73;4.23;;;7.60;99.90;;;-141.84;73.80;19543.53;5071120;28;20279;-73
2023/04/14 02:18:22;;;;;;;6.07;4.10;;;7.60;99.90;;;-141.84;73.02;19555.75;5070553;28;20227;-72
2023/04/14 02:20:53;;;;;;;4.37;3.97;;;7.70;99.90;;;-141.84;73.29;19541.50;5070464;28;20229;-74
2023/04/14 02:23:22;;;;;;;5.63;4.20;;;7.70;99.90;;;-141.84;73.08;19533.38;5070188;28;20299;-73
2023/04/14 02:25:55;;;;;;;7.57;4.07;;;7.70;99.90;;;-141.84;73.52;19504.94;5070281;28;20224;-73
2023/04/14 02:28:30;;;;;;;4.73;4.20;;;7.60;99.90;;;-141.84;73.75;19553.72;5070266;28;20706;-73
2023/04/14 02:31:03;;;;;;;4.90;4.40;;;7.60;99.90;;;-141.84;74.20;19504.94;5069974;28;20204;-74
2023/04/14 02:33:38;;;;;;;5.30;4.40;;;7.60;99.90;;;-141.84;73.88;19537.44;5070835;28;20578;-73
2023/04/14 02:36:16;;;;;;;5.37;3.87;;;7.60;99.90;;;-141.84;73.95;19488.69;5070218;28;20232;-73
2023/04/14 02:38:52;;;;;;;4.33;3.80;;;7.60;99.90;;;-141.84;74.50;19484.59;5070176;28;20228;-74
2023/04/14 02:41:25;;;;;;;4.20;3.80;;;7.50;99.90;;;-141.84;74.18;19515.09;5067304;28;20224;-74
2023/04/14 02:44:03;;;;;;;7.10;4.90;;;7.50;99.90;;;-141.84;73.85;19547.59;5050897;28;20221;-73
2023/04/14 02:46:37;;;;;;;6.63;4.40;;;7.50;99.90;;;-141.84;73.38;19480.53;5069215;28;20699;-73
2023/04/14 02:49:13;;;;;;;6.03;4.50;;;7.60;99.90;;;-141.84;73.97;19502.91;5070817;28;20181;-73
2023/04/14 02:51:45;;;;;;;5.80;4.80;;;7.50;99.90;;;-141.84;73.46;19519.16;5071080;28;20352;-73
2023/04/14 02:54:15;;;;;;;4.60;4.20;;;7.50;99.90;;;-141.84;73.43;19541.50;5070565;28;20730;-72
2023/04/14 02:56:44;;;;;;;5.00;4.33;;;7.50;99.90;;;-141.84;73.31;19511.03;5070769;28;20240;-71
2023/04/14 02:59:13;;;;;;;6.13;4.60;;;7.50;99.90;;;-141.84;73.82;19488.69;5070254;28;20229;-73
2023/04/14 03:01:43;;;;;;;5.23;4.73;;;7.50;99.90;;;-141.84;73.96;19478.50;5070630;28;20223;-73
2023/04/14 03:04:15;;;;;;;5.33;4.70;;;7.50;99.90;;;-141.84;74.02;19509.00;5071055;28;20224;-72
2023/04/14 03:06:44;;;;;;;5.83;4.50;;;7.50;99.90;;;-141.84;73.65;19504.94;5074777;28;20636;-74
2023/04/14 03:09:14;;;;;;;4.77;4.37;;;7.50;99.90;;;-141.84;73.92;19500.88;5074383;28;20226;-72
2023/04/14 03:11:45;;;;;;;6.30;4.80;;;7.40;99.90;;;-141.84;74.53;19486.66;5074218;28;20228;-74
2023/04/14 03:14:14;;;;;;;5.13;4.13;;;7.40;99.90;;;-141.84;74.94;19486.66;5074306;28;20224;-73
2023/04/14 03:16:43;;;;;;;5.10;4.60;;;7.40;99.90;;;-141.84;75.50;19456.16;5074176;28;20226;-74
2023/04/14 03:19:14;;;;;;;5.03;4.53;;;7.30;99.90;;;-141.84;75.15;19470.38;5073824;28;20722;-74
2023/04/14 03:21:43;;;;;;;5.13;4.50;;;7.30;99.90;;;-141.84;75.00;19486.66;5074620;28;20204;-73
2023/04/14 03:24:14;;;;;;;5.07;4.10;;;7.30;99.90;;;-141.84;75.31;19474.44;5073870;28;20240;-72
2023/04/14 03:26:45;;;;;;;8.23;4.70;;;7.30;99.90;;;-141.84;75.56;19427.72;5073833;28;20224;-76
2023/04/14 03:29:18;;;;;;;5.50;4.33;;;7.20;99.90;;;-141.84;75.89;19472.41;5062315;28;20721;-74
2023/04/14 03:31:47;;;;;;;5.13;4.60;;;7.20;99.90;;;-141.84;75.33;19458.19;5053593;28;20232;-75
2023/04/14 03:34:20;;;;;;;6.47;4.80;;;7.30;99.90;;;-141.84;76.05;19474.44;5053557;28;20316;-74
2023/04/14 03:36:53;;;;;;;7.43;4.37;;;7.20;99.90;;;-141.84;76.50;19446.00;5054195;28;20194;-74
2023/04/14 03:39:26;;;;;;;5.57;4.50;;;7.10;99.90;;;-141.84;76.48;19446.00;5053950;28;20217;-73
2023/04/14 03:41:56;;;;;;;5.83;4.53;;;7.10;99.90;;;-141.84;76.42;19484.59;5061009;28;20262;-72
2023/04/14 03:44:30;;;;;;;4.57;4.13;;;7.10;99.90;;;-141.84;76.20;19470.38;5073369;28;20235;-72
2023/04/14 03:47:02;;;;;;;5.83;4.10;;;7.10;99.90;;;-141.84;76.20;19472.41;5053103;28;20224;-74
2023/04/14 03:49:35;;;;;;;4.90;4.40;;;7.10;99.90;;;-141.84;75.68;19433.81;5053294;28;20598;-72
2023/04/14 03:52:12;;;;;;;6.13;4.43;;;7.10;99.90;;;-141.84;75.12;19452.09;5053319;28;20185;-72
2023/04/14 03:54:43;;;;;;;6.13;4.43;;;7.10;99.90;;;-141.84;75.96;19439.91;5054104;28;20187;-72
2023/04/14 03:57:16;;;;;;;5.13;4.20;;;7.10;99.90;;;-141.84;76.18;19448.03;5060865;28;20221;-73
2023/04/14 03:59:49;;;;;;;6.67;4.70;;;7.00;99.90;;;-141.84;75.75;19415.50;5072908;28;20735;-74
2023/04/14 04:02:19;;;;;;;5.70;4.30;;;7.10;99.90;;;-141.84;76.04;19454.13;5073159;28;20231;-73
2023/04/14 04:04:50;;;;;;;5.40;4.27;;;7.10;99.90;;;-141.84;75.37;19437.88;5074028;28;20228;-74
2023/04/14 04:07:21;;;;;;;4.80;4.30;;;7.10;99.90;;;-141.84;75.27;19423.66;5073176;28;20233;-74
2023/04/14 04:09:51;;;;;;;5.10;4.60;;;7.10;99.90;;;-141.84;75.86;19458.19;5073922;28;20205;-70
2023/04/14 04:12:22;;;;;;;7.57;5.13;;;7.00;99.90;;;-141.84;75.47;19439.91;5074537;28;20630;-74
2023/04/14 04:14:50;;;;;;;5.77;5.00;;;7.10;99.90;;;-141.84;75.31;19480.53;5071257;28;20239;-74
2023/04/14 04:17:23;;;;;;;5.17;4.60;;;7.10;99.90;;;-141.84;75.79;19456.16;5051972;28;20229;-74
2023/04/14 04:19:57;;;;;;;5.60;4.80;;;7.00;99.90;;;-141.84;76.49;19468.34;5053389;28;20221;-73
2023/04/14 04:22:28;;;;;;;6.07;5.07;;;7.00;99.90;;;-141.84;76.44;19417.56;5055814;28;20472;-75
2023/04/14 04:24:57;;;;;;;5.60;4.87;;;7.00;99.90;;;-141.84;76.78;19429.75;5072748;28;20344;-72
2023/04/14 04:27:27;;;;;;;5.90;4.90;;;7.00;99.90;;;-141.84;76.99;19446.00;5073320;28;20626;-74
2023/04/14 04:29:55;;;;;;;6.83;5.23;;;7.00;99.90;;;-141.84;76.89;19448.03;5072544;28;20240;-73
2023/04/14 04:32:24;;;;;;;7.33;5.50;;;7.00;99.90;;;-141.84;76.85;19435.84;5072682;28;20235;-73
2023/04/14 04:34:55;;;;;;;5.50;5.00;;;7.00;99.90;;;-141.84;77.24;19464.28;5074215;28;20293;-72
2023/04/14 04:37:27;;;;;;;6.57;5.87;;;7.00;99.90;;;-141.84;77.36;19443.97;5073589;28;20227;-72
2023/04/14 04:39:57;;;;;;;7.50;6.17;;;7.00;99.90;;;-141.84;77.37;19441.94;5073225;28;20209;-73
2023/04/14 04:42:25;;;;;;;9.10;7.07;;;7.00;99.90;;;-141.84;77.13;19427.72;5072943;28;20196;-73
2023/04/14 04:44:54;;;;;;;7.73;6.77;;;7.00;99.90;;;-141.84;77.04;19454.13;5069127;28;20722;-73
2023/04/14 04:47:22;;;;;;;7.47;6.43;;;7.10;99.90;;;-141.84;76.81;19441.94;5052267;28;20229;-74
2023/04/14 04:49:50;;;;;;;6.77;5.77;;;7.10;99.90;;;-141.84;75.57;19488.69;5052470;28;20221;-73
2023/04/14 04:52:19;;;;;;;7.40;6.50;;;7.20;99.90;;;-141.84;74.27;19466.31;5051985;28;20713;-72
2023/04/14 04:54:51;;;;;;;6.00;5.40;;;7.20;99.90;;;-141.84;75.50;19476.47;5052714;28;20431;-74
2023/04/14 04:57:19;;;;;;;8.60;6.20;;;7.20;99.90;;;-141.84;75.87;19482.56;5052694;28;20213;-74
2023/04/14 04:59:47;;;;;;;7.60;5.70;;;7.30;99.90;;;-141.84;76.13;19468.34;5051839;28;20232;-72
2023/04/14 05:02:16;;;;;;;9.70;6.37;;;7.30;99.90;;;-141.84;76.53;19454.13;5051873;28;20234;-74
2023/04/14 05:04:44;;;;;;;6.97;5.77;;;7.30;99.90;;;-141.84;75.82;19468.34;5051898;28;20256;-74
2023/04/14 05:07:12;;;;;;;7.10;5.93;;;7.30;99.90;;;-141.84;75.65;19484.59;5053344;28;20237;-73
2023/04/14 05:09:42;;;;;;;7.03;6.30;;;7.30;99.90;;;-141.84;76.10;19450.06;5072680;28;20301;-72
2023/04/14 05:12:10;;;;;;;6.80;6.10;;;7.40;99.90;;;-141.84;76.42;19474.44;5071704;28;20232;-73
2023/04/14 05:14:38;;;;;;;6.10;5.50;;;7.40;99.90;;;-141.84;76.51;19458.19;5071062;28;20235;-73
2023/04/14 05:17:06;;;;;;;6.10;5.50;;;7.40;99.90;;;-141.84;76.34;19476.47;5071578;28;20493;-74
2023/04/14 05:19:35;;;;;;;5.77;5.17;;;7.50;99.90;;;-141.84;75.75;19472.41;5071514;28;20224;-75
2023/04/14 05:22:03;;;;;;;7.47;5.60;;;7.50;99.90;;;-141.84;76.03;19490.72;5071828;28;20223;-60
2023/04/14 05:24:31;;;;;;;6.17;5.37;;;7.50;99.90;;;-141.84;76.15;19482.56;5071490;28;20716;-60
2023/04/14 05:27:01;;;;;;;7.70;5.90;;;7.60;99.90;;;-141.84;74.80;19500.88;5070774;28;20237;-60
2023/04/14 05:29:41;;;;;;;6.10;4.93;;;7.60;99.90;;;-141.84;74.63;19496.81;5070743;28;20313;-60
2023/04/14 05:32:11;;;;;;;5.90;5.30;;;7.70;99.90;;;-141.84;73.75;19537.44;5070983;28;20232;-60
2023/04/14 05:34:39;;;;;;;6.50;5.33;;;7.80;99.90;;;-141.84;73.71;19545.56;5070686;28;20239;-61
2023/04/14 05:37:08;;;;;;;6.97;5.20;;;7.80;99.90;;;-141.84;73.31;19545.56;5071117;28;20197;-60
2023/04/14 05:39:36;;;;;;;5.93;5.20;;;7.80;99.90;;;-141.84;74.18;19519.16;5071245;28;20196;-61
2023/04/14 05:42:06;;;;;;;6.93;5.13;;;7.80;99.90;;;-141.84;74.22;19529.31;5070837;28;20216;-60
2023/04/14 05:44:34;;;;;;;7.97;4.93;;;7.90;99.90;;;-141.84;74.06;19525.25;5070161;28;20221;-60
2023/04/14 05:47:02;;;;;;;6.47;5.07;;;7.90;99.90;;;-141.84;73.85;19533.38;5071167;28;20233;-60
2023/04/14 05:49:31;;;;;;;5.37;4.80;;;7.90;99.90;;;-141.84;72.90;19569.97;5064450;28;20225;-60
2023/04/14 05:51:59;;;;;;;5.90;5.30;;;8.00;99.90;;;-141.84;73.89;19535.41;5050974;28;20228;-60
2023/04/14 05:54:27;;;;;;;5.23;4.70;;;8.00;99.90;;;-141.84;74.33;19529.31;5051136;28;20324;-60
2023/04/14 05:56:56;;;;;;;6.03;5.17;;;8.00;99.90;;;-141.84;73.72;19535.41;5050596;28;20225;-60
2023/04/14 05:59:26;;;;;;;5.30;4.60;;;8.00;99.90;;;-141.84;73.30;19541.50;5062751;28;20415;-60
2023/04/14 06:01:54;;;;;;;7.53;4.50;;;8.10;99.90;;;-141.84;73.36;19541.50;5070670;28;20232;-61
2023/04/14 06:04:22;;;;;;;7.13;5.10;;;8.10;99.90;;;-141.84;73.78;19555.75;5070407;28;20226;-59
2023/04/14 06:06:51;;;;;;;6.90;5.20;;;8.20;99.90;;;-141.84;72.43;19557.78;5070790;28;20201;-60
2023/04/14 06:09:19;;;;;;;6.90;4.73;;;8.20;99.90;;;-141.84;72.58;19574.03;5070593;28;20554;-59
2023/04/14 06:11:47;;;;;;;5.63;4.57;;;8.20;99.90;;;-141.84;71.80;19588.25;5070477;28;20247;-59
2023/04/14 06:14:15;;;;;;;6.23;5.03;;;8.30;99.90;;;-141.84;71.52;19600.44;5070019;28;20232;-59
2023/04/14 06:16:45;;;;;;;6.03;4.80;;;8.40;99.90;;;-141.84;71.50;19598.41;5070008;28;20224;-60
2023/04/14 06:19:13;;;;;;;6.47;4.70;;;8.40;99.90;;;-141.84;72.34;19567.94;5070612;28;20220;-60
2023/04/14 06:21:41;;;;;;;5.77;4.57;;;8.30;99.90;;;-141.84;72.46;19563.88;5070717;28;20676;-60
2023/04/14 06:24:09;;;;;;;5.73;4.83;;;8.30;99.90;;;-141.84;73.06;19578.09;5070055;28;20232;-60
2023/04/14 06:26:38;;;;;;;6.27;5.40;;;8.30;99.90;;;-141.84;73.73;19559.81;5070151;28;20255;-60
2023/04/14 06:29:06;;;;;;;6.70;5.03;;;8.30;99.90;;;-141.84;73.50;19600.44;5070016;28;20235;-61
2023/04/14 06:31:35;;;;;;;5.57;4.90;;;8.30;99.90;;;-141.84;73.24;19578.09;5070440;28;20620;-61
2023/04/14 06:34:04;;;;;;;6.00;5.27;;;8.30;99.90;;;-141.84;72.83;19586.22;5070303;28;20312;-59
2023/04/14 06:36:32;;;;;;;6.73;4.63;;;8.50;99.90;;;-141.84;72.92;19610.59;5071196;28;20205;-61
2023/04/14 06:39:01;;;;;;;5.60;4.63;;;8.40;99.90;;;-141.84;72.52;19612.63;5069317;28;20228;-60
2023/04/14 06:41:29;;;;;;;5.73;4.60;;;8.50;99.90;;;-141.84;72.63;19630.94;5070112;28;20300;-61
2023/04/14 06:43:57;;;;;;;5.47;4.97;;;8.50;99.90;;;-141.84;72.97;19596.38;5070079;28;20239;-60
2023/04/14 06:46:25;;;;;;;6.87;5.00;;;8.60;99.90;;;-141.84;72.36;19600.44;5057696;28;20673;-61
2023/04/14 06:48:54;;;;;;;5.93;5.10;;;8.70;99.90;;;-141.84;71.03;19651.25;5050372;28;20204;-62
2023/04/14 06:51:23;;;;;;;7.90;5.30;;;8.80;99.90;;;-141.84;71.65;19645.16;5050965;28;20274;-61
2023/04/14 06:53:51;;;;;;;4.97;4.30;;;8.70;99.90;;;-141.84;72.94;19598.41;5050010;28;20233;-61
2023/04/14 06:56:19;;;;;;;6.33;5.33;;;8.70;99.90;;;-141.84;72.57;19618.75;5049960;28;20249;-61
2023/04/14 06:58:47;;;;;;;9.20;4.73;;;8.80;99.90;;;-141.84;72.79;19643.13;5057419;28;20220;-61
2023/04/14 07:01:15;;;;;;;5.37;4.67;;;8.80;99.90;;;-141.84;72.27;19628.91;5070169;28;20228;-59
2023/04/14 07:03:44;;;;;;;6.67;5.10;;;8.80;99.90;;;-141.84;71.22;19691.91;5071059;28;20200;-61
2023/04/14 07:06:15;;;;;;;7.27;4.97;;;8.90;99.90;;;-141.84;70.97;19659.38;5070173;28;20228;-61
2023/04/14 07:08:45;;;;;;;6.80;4.40;;;9.00;99.90;;;-141.84;70.89;19704.09;5070023;28;20712;-61
2023/04/14 07:11:13;;;;;;;7.67;4.77;;;9.10;99.90;;;-141.84;70.07;19671.56;5070237;28;20227;-60
2023/04/14 07:13:42;;;;;;;6.63;4.77;;;9.20;99.90;;;-141.84;70.49;19683.78;5069997;28;20696;-60
2023/04/14 07:16:10;;;;;;;6.47;4.43;;;9.10;99.90;;;-141.84;69.92;19673.59;5050723;28;20278;-61
2023/04/14 07:18:38;;;;;;;5.20;4.53;;;9.20;99.90;;;-141.84;71.08;19663.44;5071050;28;20257;-60
2023/04/14 07:21:06;;;;;;;5.97;4.50;;;9.20;99.90;;;-141.84;71.06;19669.53;5069769;28;20767;-62
2023/04/14 07:23:34;;;;;;;5.20;4.40;;;9.20;99.90;;;-141.84;70.89;19677.66;5069714;28;20712;-60
2023/04/14 07:26:04;;;;;;;6.87;4.97;;;9.20;99.90;;;-141.84;70.42;19687.84;5069833;28;20228;-60
2023/04/14 07:28:33;;;;;;;6.57;5.20;;;9.20;99.90;;;-141.84;70.42;19716.28;5069518;28;20221;-60
2023/04/14 07:31:08;;;;;;;6.40;4.70;;;9.20;99.90;;;-141.84;71.08;19687.84;5069642;28;20220;-60
2023/04/14 07:33:37;;;;;;;6.50;4.73;;;9.10;99.90;;;-141.84;70.79;19685.81;5070478;28;20220;-60
2023/04/14 07:36:06;;;;;;;5.27;4.30;;;9.20;99.90;;;-141.84;70.99;19667.50;5061047;28;20275;-61
2023/04/14 07:38:35;;;;;;;6.00;4.93;;;9.20;99.90;;;-141.84;71.25;19704.09;5062447;28;20221;-62
2023/04/14 07:41:07;;;;;;;5.67;4.87;;;9.20;99.90;;;-141.84;70.11;19728.47;5068086;28;20228;-60
2023/04/14 07:43:35;;;;;;;6.03;4.53;;;9.40;99.90;;;-141.84;69.86;19724.41;5068379;28;20247;-61
2023/04/14 07:46:04;;;;;;;6.00;4.33;;;9.50;99.90;;;-141.84;69.70;19706.13;5065005;28;20201;-60
2023/04/14 07:48:33;;;;;;;7.13;5.27;;;9.50;99.90;;;-141.84;69.38;19734.56;5069731;28;20284;-59
2023/04/14 07:51:02;;;;;;;7.23;4.57;;;9.50;99.90;;;-141.84;69.27;19695.97;5070922;28;20411;-60
2023/04/14 07:53:30;;;;;;;6.30;4.20;;;9.50;99.90;;;-141.84;69.65;19738.66;5072628;28;20282;-60
2023/04/14 07:55:59;;;;;;;5.90;3.97;;;9.50;99.90;;;-141.84;69.92;19716.28;5072340;28;20225;-61
2023/04/14 07:58:29;;;;;;;5.00;4.40;;;9.40;99.90;;;-141.84;69.23;19722.38;5072436;28;20722;-60
2023/04/14 08:00:57;;;;;;;6.97;4.57;;;9.50;99.90;;;-141.84;68.80;19706.13;5072707;28;20224;-60
2023/04/14 08:03:25;;;;;;;5.07;3.97;;;9.50;99.90;;;-141.84;68.41;19728.47;5073032;28;20201;-60
2023/04/14 08:05:54;;;;;;;6.03;4.20;;;9.60;99.90;;;-141.84;69.31;19742.72;5072591;28;20220;-60
2023/04/14 08:08:22;;;;;;;4.57;4.17;;;9.50;99.90;;;-141.84;70.08;19720.34;5072541;28;20220;-61
2023/04/14 08:10:50;;;;;;;6.33;4.00;;;9.60;99.90;;;-141.84;68.96;19752.88;5072410;28;20248;-59
2023/04/14 08:13:18;;;;;;;5.63;4.20;;;9.70;99.90;;;-141.84;68.85;19736.59;5072253;28;20630;-61
2023/04/14 08:15:48;;;;;;;5.93;3.77;;;9.70;99.90;;;-141.84;68.75;19773.19;5062654;28;20232;-57
2023/04/14 08:18:17;;;;;;;5.37;3.63;;;9.80;99.90;;;-141.84;67.37;19813.84;5052780;28;20225;-57
2023/04/14 08:20:45;;;;;;;5.63;4.30;;;10.00;99.90;;;-141.84;67.21;19789.44;5052258;28;20666;-59
2023/04/14 08:23:13;;;;;;;4.80;3.50;;;10.10;99.90;;;-141.84;68.33;19789.44;5052419;28;20593;-58
2023/04/14 08:25:42;;;;;;;4.33;3.60;;;9.90;99.90;;;-141.84;67.67;19783.34;5051900;28;20711;-58
2023/04/14 08:28:10;;;;;;;4.63;3.73;;;10.00;99.90;;;-141.84;67.13;19807.75;5054097;28;20226;-57
2023/04/14 08:30:38;;;;;;;5.80;3.57;;;10.00;99.90;;;-141.84;65.55;19838.22;5072683;28;20197;-60
2023/04/14 08:33:07;;;;;;;4.80;3.60;;;10.20;99.90;;;-141.84;65.58;19864.66;5071990;28;20228;-62
2023/04/14 08:35:36;;;;;;;3.87;3.47;;;10.30;99.90;;;-141.84;66.01;19826.03;5071887;28;20471;-60
2023/04/14 08:38:10;;;;;;;3.93;3.27;;;10.30;99.90;;;-141.84;66.10;19860.59;5066386;28;20225;-60
2023/04/14 08:40:41;;;;;;;3.87;3.40;;;10.40;99.90;;;-141.84;66.23;19815.88;5041309;28;20233;-59
2023/04/14 08:43:10;;;;;;;4.07;3.17;;;10.40;99.90;;;-141.84;65.53;19828.06;5069128;28;20224;-62
2023/04/14 08:45:43;;;;;;;3.60;3.30;;;10.50;99.90;;;-141.84;65.69;19876.84;5070238;28;20550;-60
2023/04/14 08:48:19;;;;;;;3.87;3.50;;;10.50;99.90;;;-141.84;64.90;19870.75;5071507;28;20604;-63
2023/04/14 08:51:00;;;;;;;4.73;3.57;;;10.40;99.90;;;-141.84;65.57;19821.97;5071734;28;20228;-62
2023/04/14 08:53:32;;;;;;;6.17;3.80;;;10.40;99.90;;;-141.84;64.92;19858.56;5071398;28;20235;-60
2023/04/14 08:56:04;;;;;;;5.27;3.60;;;10.40;99.90;;;-141.84;65.37;19858.56;5071633;28;20278;-61
2023/04/14 08:58:32;;;;;;;4.50;4.10;;;10.40;99.90;;;-141.84;64.60;19887.00;5071416;28;20220;-59
2023/04/14 09:01:03;;;;;;;5.30;3.53;;;10.60;99.90;;;-141.84;64.09;19862.63;5071561;28;20205;-59
2023/04/14 09:03:34;;;;;;;4.00;3.60;;;10.70;99.90;;;-141.84;63.31;19935.78;5070907;28;20212;-61
2023/04/14 09:06:04;;;;;;;5.17;3.70;;;10.80;99.90;;;-141.84;62.98;19933.75;5071437;28;20224;-61
2023/04/14 09:08:33;;;;;;;4.87;3.60;;;10.90;99.90;;;-141.84;62.31;19978.47;5070848;28;20231;-60
2023/04/14 09:11:02;;;;;;;5.60;4.23;;;10.90;99.90;;;-141.84;61.62;19972.38;5071589;28;20672;-62
2023/04/14 09:13:31;;;;;;;6.40;3.87;;;11.00;99.90;;;-141.84;61.52;19962.19;5071028;28;20225;-60
2023/04/14 09:16:00;;;;;;;6.37;3.83;;;11.20;99.90;;;-141.84;61.67;19992.69;5070864;28;20692;-60
2023/04/14 09:18:30;;;;;;;4.37;3.60;;;11.20;99.90;;;-141.84;61.77;19992.69;5071756;28;20196;-61
2023/04/14 09:21:03;;;;;;;5.13;3.50;;;11.20;99.90;;;-141.84;62.04;19978.47;5071143;28;20239;-61
2023/04/14 09:23:51;;;;;;;5.97;3.80;;;11.10;99.90;;;-141.84;62.79;19964.25;5070797;28;20328;-60
2023/04/14 09:26:19;;;;;;;5.07;4.33;;;11.10;99.90;;;-141.84;62.06;20013.00;5071007;28;20693;-62
2023/04/14 09:28:47;;;;;;;5.63;4.10;;;11.30;99.90;;;-141.84;62.63;19994.72;5071023;28;20466;-59
2023/04/14 09:31:16;;;;;;;4.40;4.00;;;11.30;99.90;;;-141.84;60.80;20037.41;5071050;28;20509;-59
2023/04/14 09:33:49;;;;;;;6.33;4.00;;;11.50;99.90;;;-141.84;61.66;20025.22;5071556;28;20210;-61
2023/04/14 09:36:24;;;;;;;5.63;4.20;;;11.60;99.90;;;-141.84;61.79;20049.59;5050943;28;20217;-61
2023/04/14 09:38:52;;;;;;;5.63;4.40;;;11.70;99.90;;;-141.84;61.05;20035.38;5050487;28;20225;-60
2023/04/14 09:41:24;;;;;;;4.20;3.80;;;11.80;99.90;;;-141.84;60.14;20090.25;5053765;28;20665;-60
2023/04/14 09:43:53;;;;;;;4.40;4.00;;;12.00;99.90;;;-141.84;60.28;20090.25;5070445;28;20235;-60
2023/04/14 09:46:21;;;;;;;4.13;3.83;;;12.10;99.90;;;-141.84;60.11;20061.78;5070347;28;20221;-60
2023/04/14 09:48:54;;;;;;;7.10;4.30;;;12.10;99.90;;;-141.84;59.58;20088.22;5070706;28;20672;-60
2023/04/14 09:51:27;;;;;;;5.80;4.13;;;12.00;99.90;;;-141.84;60.29;20110.56;5071237;28;20189;-61
2023/04/14 09:54:03;;;;;;;5.63;3.70;;;12.10;99.90;;;-141.84;60.71;20134.97;5070539;28;20715;-59
2023/04/14 09:56:32;;;;;;;4.20;3.43;;;12.10;99.90;;;-141.84;57.67;20143.09;5070359;28;20711;-59
2023/04/14 09:59:02;;;;;;;4.33;3.93;;;12.10;99.90;;;-141.84;58.84;20141.06;5068724;28;20227;-60
2023/04/14 10:01:33;;;;;;;4.27;3.87;;;12.10;99.90;;;-141.84;59.24;20130.91;5070321;28;20231;-59
2023/04/14 10:04:02;;;;;;;4.68;3.90;;;12.10;99.90;;;-141.84;59.67;20057.72;5070328;28;20201;-61
2023/04/14 10:06:32;;;;;;;3.90;3.60;;;11.90;99.90;;;-141.84;60.25;20065.84;5070945;28;20204;-60
2023/04/14 10:09:01;;;;;;;4.60;3.70;;;11.90;99.90;;;-141.84;60.70;20104.47;5069886;28;20695;-61
2023/04/14 10:11:32;;;;;;;3.73;3.43;;;12.00;99.90;;;-141.84;58.23;20157.31;5070059;28;20232;-58
2023/04/14 10:14:03;;;;;;;4.45;3.70;;;12.20;99.90;;;-141.84;58.37;20139.03;5069688;28;20228;-60
2023/04/14 10:16:32;;;;;;;4.47;3.80;;;12.20;99.90;;;-141.84;58.49;20163.41;5070042;28;20603;-59
2023/04/14 10:19:00;;;;;;;3.00;2.80;;;12.30;99.90;;;-141.84;58.11;20141.06;5070116;28;20207;-60
2023/04/14 10:21:32;;;;;;;3.50;3.20;;;12.30;99.90;;;-141.84;57.50;20159.34;5070528;28;20248;-61
2023/04/14 10:24:01;;;;;;;3.77;3.30;;;12.30;99.90;;;-141.84;59.29;20053.66;5069791;28;20267;-59